CheckWX is a tool to help pilots better visualize weather data.  It is not intended as a substitute for an official pre-flight weather briefing.

12:53:48 UTC

KLSV TAF
Nellis AFB Airport
Las Vegas, Nevada, USA
TAF KLSV 160700Z 1607/1713 VRB06KT 9999 FEW250 QNH2970INS BECMG 1617/1618 18012G18KT 9999 SCT150 QNH2966INS TEMPO 1622/1704 20015G25KT 520009 BECMG 1703/1704 19012KT 9999 FEW150 QNH2968INS TX40/1622Z TN26/1613Z

Jun-16@
07:00 UTC

Jun-16 @ 07:00 UTC

Jun-16@
17:00 UTC

Jun-16 @ 17:00 UTC

TAF KLSV 160700Z 1607/1713 VRB06KT 9999 FEW250 QNH2970INS
Wind
  • Variable at 6 KTS
Cloud Levels
  • Few at 25,000' AGL

Jun-16@
17:00 UTC

Jun-16 @ 17:00 UTC

Jun-17@
03:00 UTC

Jun-17 @ 03:00 UTC

BECMG 1617/1618 18012G18KT 9999 SCT150 QNH2966INS

Becoming

Becoming Conditions expected by Sun, Jun 16, 2019 @ 18:00 UTC

Wind
  • 180° at 12 KTS
  • {Gusting to 18 KTS
Cloud Levels
  • Scattered at 15,000' AGL

Jun-16@
22:00 UTC

Jun-16 @ 22:00 UTC

Jun-17@
04:00 UTC

Jun-17 @ 04:00 UTC

TEMPO 1622/1704 20015G25KT 520009

Temporary

Temporary Changes expected for less than half the time period

Wind
  • 200° at 15 KTS
  • {Gusting to 25 KTS
Turbulence
< Occasional moderate clear air turbulence expected at the surface extending to 9,000' AGL

Jun-17@
03:00 UTC

Jun-17 @ 03:00 UTC

Jun-17@
13:00 UTC

Jun-17 @ 13:00 UTC

BECMG 1703/1704 19012KT 9999 FEW150 QNH2968INS TX40/1622Z TN26/1613Z

Becoming

Becoming Conditions expected by Mon, Jun 17, 2019 @ 04:00 UTC

Wind
  • 190° at 12 KTS
Cloud Levels
  • Few at 15,000' AGL